createdAt,value
2023-04-27T00:02:08.416Z,2.60
2023-04-27T00:04:37.629Z,2.13
2023-04-27T00:07:05.822Z,2.33
2023-04-27T00:09:33.777Z,2.37
2023-04-27T00:12:01.861Z,2.50
2023-04-27T00:14:29.696Z,2.20
2023-04-27T00:16:59.006Z,2.27
2023-04-27T00:19:26.827Z,2.10
2023-04-27T00:21:54.730Z,2.30
2023-04-27T00:24:22.569Z,1.90
2023-04-27T00:26:50.484Z,1.90
2023-04-27T00:29:18.411Z,2.13
2023-04-27T00:31:46.345Z,2.13
2023-04-27T00:34:15.862Z,2.17
2023-04-27T00:36:43.790Z,2.00
2023-04-27T00:39:12.356Z,2.30
2023-04-27T00:41:41.080Z,2.00
2023-04-27T00:44:09.136Z,2.43
2023-04-27T00:46:37.216Z,2.20
2023-04-27T00:49:05.538Z,2.27
2023-04-27T00:51:34.841Z,2.10
2023-04-27T00:54:02.967Z,2.17
2023-04-27T00:56:31.850Z,2.40
2023-04-27T00:58:59.819Z,2.20
2023-04-27T01:01:27.917Z,2.23
2023-04-27T01:03:56.075Z,2.03
2023-04-27T01:06:24.199Z,2.10
2023-04-27T01:08:53.449Z,2.57
2023-04-27T01:11:22.286Z,2.37
2023-04-27T01:13:50.300Z,2.33
2023-04-27T01:16:18.927Z,2.03
2023-04-27T01:18:48.081Z,2.40
2023-04-27T01:21:15.937Z,2.47
2023-04-27T01:23:45.171Z,2.70
2023-04-27T01:26:16.254Z,2.07
2023-04-27T01:28:44.314Z,2.00
2023-04-27T01:31:12.674Z,2.50
2023-04-27T01:33:41.236Z,2.07
2023-04-27T01:36:10.322Z,2.20
2023-04-27T01:38:38.292Z,2.10
2023-04-27T01:41:09.132Z,2.50
2023-04-27T01:43:37.967Z,2.23
2023-04-27T01:46:10.106Z,2.50
2023-04-27T01:48:38.912Z,2.27
2023-04-27T01:51:07.023Z,2.27
2023-04-27T01:53:35.616Z,2.30
2023-04-27T01:56:03.712Z,2.60
2023-04-27T01:58:35.491Z,2.50
2023-04-27T02:01:04.314Z,2.17
2023-04-27T02:03:32.500Z,2.20
2023-04-27T02:06:00.889Z,2.50
2023-04-27T02:08:28.885Z,2.40
2023-04-27T02:10:56.792Z,2.20
2023-04-27T02:13:24.763Z,1.93
2023-04-27T02:15:55.982Z,2.20
2023-04-27T02:18:24.362Z,2.43
2023-04-27T02:20:52.621Z,2.23
2023-04-27T02:23:20.629Z,2.40
2023-04-27T02:25:48.597Z,2.40
2023-04-27T02:28:16.612Z,2.67
2023-04-27T02:30:46.089Z,2.93
2023-04-27T02:33:15.603Z,2.40
2023-04-27T02:35:43.506Z,2.30
2023-04-27T02:38:11.483Z,2.43
2023-04-27T02:40:39.584Z,2.50
2023-04-27T02:43:08.458Z,2.40
2023-04-27T02:45:38.984Z,2.40
2023-04-27T02:48:07.803Z,2.70
2023-04-27T02:50:41.909Z,2.57
2023-04-27T02:53:09.884Z,2.30
2023-04-27T02:55:38.054Z,2.60
2023-04-27T02:58:06.222Z,2.60
2023-04-27T03:00:34.405Z,2.80
2023-04-27T03:03:02.951Z,2.67
2023-04-27T03:05:31.870Z,2.47
2023-04-27T03:08:01.430Z,2.60
2023-04-27T03:10:29.466Z,2.63
2023-04-27T03:12:57.498Z,2.53
2023-04-27T03:15:25.405Z,2.60
2023-04-27T03:17:53.576Z,2.47
2023-04-27T03:20:23.008Z,2.67
2023-04-27T03:22:50.978Z,3.43
2023-04-27T03:25:22.320Z,2.77
2023-04-27T03:27:50.849Z,2.63
2023-04-27T03:30:18.832Z,2.60
2023-04-27T03:32:47.853Z,2.63
2023-04-27T03:35:16.186Z,2.90
2023-04-27T03:37:46.607Z,2.63
2023-04-27T03:40:15.375Z,2.73
2023-04-27T03:42:44.641Z,2.73
2023-04-27T03:45:13.037Z,2.80
2023-04-27T03:47:41.304Z,2.90
2023-04-27T03:50:10.198Z,2.90
2023-04-27T03:52:38.100Z,3.23
2023-04-27T03:55:07.389Z,2.70
2023-04-27T03:57:35.573Z,3.00
2023-04-27T04:00:11.296Z,2.90
2023-04-27T04:02:40.791Z,2.93
2023-04-27T04:05:09.902Z,3.50
2023-04-27T04:07:38.056Z,3.07
2023-04-27T04:10:07.871Z,3.40
2023-04-27T04:12:35.966Z,3.10
2023-04-27T04:15:05.916Z,3.30
2023-04-27T04:17:34.947Z,2.90
2023-04-27T04:20:08.311Z,2.83
2023-04-27T04:22:36.335Z,3.47
2023-04-27T04:25:04.826Z,2.87
2023-04-27T04:27:33.549Z,3.20
2023-04-27T04:30:01.775Z,3.10
2023-04-27T04:32:31.397Z,3.13
2023-04-27T04:35:01.357Z,3.00
2023-04-27T04:37:30.342Z,2.80
2023-04-27T04:39:58.288Z,3.03
2023-04-27T04:42:27.710Z,2.97
2023-04-27T04:44:55.740Z,2.93
2023-04-27T04:47:23.674Z,3.33
2023-04-27T04:49:54.758Z,3.10
2023-04-27T04:52:22.695Z,3.00
2023-04-27T04:54:52.932Z,3.47
2023-04-27T04:57:22.429Z,3.03
2023-04-27T04:59:50.338Z,3.47
2023-04-27T05:02:18.332Z,3.30
2023-04-27T05:04:46.441Z,3.00
2023-04-27T05:07:20.890Z,3.33
2023-04-27T05:09:51.338Z,3.43
2023-04-27T05:12:19.191Z,3.53
2023-04-27T05:14:47.706Z,3.17
2023-04-27T05:17:15.565Z,3.37
2023-04-27T05:19:43.482Z,3.70
2023-04-27T05:22:11.501Z,3.70
2023-04-27T05:24:41.082Z,3.70
2023-04-27T05:27:09.052Z,3.90
2023-04-27T05:29:36.913Z,3.87
2023-04-27T05:32:05.251Z,4.67
2023-04-27T05:34:33.221Z,4.60
2023-04-27T05:37:01.302Z,4.90
2023-04-27T05:39:29.216Z,4.33
2023-04-27T05:41:58.818Z,4.23
2023-04-27T05:44:29.316Z,3.87
2023-04-27T05:46:57.327Z,4.23
2023-04-27T05:49:25.374Z,3.97
2023-04-27T05:51:53.630Z,4.10
2023-04-27T05:54:21.731Z,4.57
2023-04-27T05:56:50.365Z,4.00
2023-04-27T05:59:19.514Z,4.10
2023-04-27T06:01:47.483Z,4.20
2023-04-27T06:04:15.723Z,4.30
2023-04-27T06:06:44.999Z,4.73
2023-04-27T06:09:13.063Z,4.80
2023-04-27T06:11:41.053Z,5.03
2023-04-27T06:14:09.390Z,4.97
2023-04-27T06:16:38.636Z,5.53
2023-04-27T06:19:06.562Z,5.20
2023-04-27T06:21:35.037Z,5.60
2023-04-27T06:24:03.339Z,6.10
2023-04-27T06:26:31.212Z,5.90
2023-04-27T06:28:59.322Z,5.50
2023-04-27T06:31:27.740Z,5.40
2023-04-27T06:33:57.300Z,5.40
2023-04-27T06:36:26.729Z,6.07
2023-04-27T06:38:56.304Z,5.93
2023-04-27T06:41:24.205Z,5.60
2023-04-27T06:43:52.330Z,5.97
2023-04-27T06:46:21.483Z,6.13
2023-04-27T06:48:49.387Z,5.53
2023-04-27T06:51:18.639Z,5.57
2023-04-27T06:53:46.607Z,5.63
2023-04-27T06:56:14.474Z,5.87
2023-04-27T06:58:42.353Z,5.07
2023-04-27T07:01:10.384Z,5.63
2023-04-27T07:03:38.391Z,5.53
2023-04-27T07:06:06.913Z,5.47
2023-04-27T07:08:37.800Z,5.67
2023-04-27T07:11:06.008Z,5.40
2023-04-27T07:13:33.907Z,5.67
2023-04-27T07:16:01.907Z,5.90
2023-04-27T07:18:29.901Z,6.30
2023-04-27T07:20:58.058Z,5.90
2023-04-27T07:23:26.023Z,6.90
2023-04-27T07:25:55.460Z,6.30
2023-04-27T07:28:23.355Z,6.23
2023-04-27T07:30:51.202Z,6.77
2023-04-27T07:33:19.132Z,6.10
2023-04-27T07:35:47.068Z,6.60
2023-04-27T07:38:14.946Z,5.97
2023-04-27T07:40:44.791Z,6.20
2023-04-27T07:43:15.582Z,6.50
2023-04-27T07:45:44.015Z,6.03
2023-04-27T07:48:12.208Z,6.50
2023-04-27T07:50:40.101Z,6.33
2023-04-27T07:53:08.004Z,6.80
2023-04-27T07:55:36.062Z,5.87
2023-04-27T07:58:03.996Z,5.83
2023-04-27T08:00:33.316Z,5.80
2023-04-27T08:03:01.441Z,6.60
2023-04-27T08:05:29.989Z,5.27
2023-04-27T08:07:58.571Z,5.60
2023-04-27T08:10:26.668Z,5.47
2023-04-27T08:12:54.812Z,5.67
2023-04-27T08:15:22.691Z,5.77
2023-04-27T08:17:51.969Z,5.80
2023-04-27T08:20:20.083Z,5.60
2023-04-27T08:22:47.985Z,5.83
2023-04-27T08:25:15.905Z,5.27
2023-04-27T08:27:43.923Z,5.17
2023-04-27T08:30:12.689Z,5.10
2023-04-27T08:32:40.988Z,5.30
2023-04-27T08:35:11.512Z,5.43
2023-04-27T08:37:39.958Z,4.77
2023-04-27T08:40:09.923Z,4.67
2023-04-27T08:42:37.940Z,4.60
2023-04-27T08:45:09.208Z,5.73
2023-04-27T08:47:43.197Z,4.83
2023-04-27T08:50:13.899Z,4.70
2023-04-27T08:52:44.514Z,4.87
2023-04-27T08:55:14.433Z,4.43
2023-04-27T08:57:54.315Z,5.80
2023-04-27T09:00:22.750Z,4.60
2023-04-27T09:02:50.959Z,4.87
2023-04-27T09:05:21.428Z,5.20
2023-04-27T09:07:59.626Z,4.53
2023-04-27T09:10:29.360Z,4.23
2023-04-27T09:12:59.099Z,4.40
2023-04-27T09:15:27.579Z,4.83
2023-04-27T09:17:56.942Z,5.03
2023-04-27T09:20:28.579Z,4.90
2023-04-27T09:22:58.016Z,4.83
2023-04-27T09:25:31.401Z,4.13
2023-04-27T09:28:01.894Z,4.23
2023-04-27T09:30:30.761Z,4.37
2023-04-27T09:33:01.058Z,4.50
2023-04-27T09:35:31.498Z,4.53
2023-04-27T09:38:00.467Z,4.33
2023-04-27T09:40:31.385Z,4.57
2023-04-27T09:43:02.046Z,4.93
2023-04-27T09:45:30.463Z,4.47
2023-04-27T09:47:59.659Z,4.40
2023-04-27T09:50:27.755Z,4.60
2023-04-27T09:52:57.190Z,4.87
2023-04-27T09:55:29.387Z,5.13
2023-04-27T09:58:10.545Z,4.30
2023-04-27T10:00:49.634Z,4.77
2023-04-27T10:03:23.546Z,4.63
2023-04-27T10:06:43.508Z,4.70
2023-04-27T10:09:14.803Z,4.80
2023-04-27T10:11:45.140Z,4.23
2023-04-27T10:14:19.256Z,4.30
2023-04-27T10:16:50.829Z,4.90
2023-04-27T10:19:19.031Z,4.23
2023-04-27T10:21:57.837Z,4.50
2023-04-27T10:24:40.831Z,4.50
2023-04-27T10:27:11.329Z,4.43
2023-04-27T10:29:41.777Z,4.13
2023-04-27T10:32:11.763Z,4.20
2023-04-27T10:34:41.268Z,4.13
2023-04-27T10:37:10.946Z,4.37
2023-04-27T10:39:48.605Z,4.50
2023-04-27T10:42:29.048Z,4.50
2023-04-27T10:44:59.004Z,4.60
2023-04-27T10:47:38.609Z,4.27
2023-04-27T10:50:08.809Z,4.63
2023-04-27T10:52:36.706Z,4.27
2023-04-27T10:55:20.230Z,4.87
2023-04-27T10:57:50.046Z,4.43
2023-04-27T11:00:25.246Z,4.43
2023-04-27T11:02:54.045Z,4.30
2023-04-27T11:05:29.154Z,4.00
2023-04-27T11:08:06.660Z,4.67
2023-04-27T11:10:36.964Z,4.33
2023-04-27T11:13:10.024Z,3.73
2023-04-27T11:15:45.941Z,4.63
2023-04-27T11:18:13.937Z,4.10
2023-04-27T11:20:41.800Z,4.87
2023-04-27T11:23:11.182Z,4.27
2023-04-27T11:25:40.500Z,4.27
2023-04-27T11:28:18.354Z,3.83
2023-04-27T11:30:46.328Z,5.23
2023-04-27T11:33:14.246Z,5.20
2023-04-27T11:35:42.613Z,8.90
2023-04-27T11:38:18.643Z,4.00
2023-04-27T11:40:48.470Z,4.10
2023-04-27T11:43:16.349Z,3.97
2023-04-27T11:45:44.940Z,3.90
2023-04-27T11:48:16.589Z,4.30
2023-04-27T11:50:48.387Z,3.87
2023-04-27T11:53:18.722Z,3.83
2023-04-27T11:55:53.513Z,3.57
2023-04-27T11:58:22.512Z,3.90
2023-04-27T12:00:50.842Z,3.90
2023-04-27T12:03:18.794Z,4.17
2023-04-27T12:05:51.207Z,3.90
2023-04-27T12:08:19.292Z,4.00
2023-04-27T12:10:48.691Z,3.67
2023-04-27T12:13:16.627Z,3.73
2023-04-27T12:15:44.755Z,3.90
2023-04-27T12:18:12.755Z,4.67
2023-04-27T12:20:41.492Z,4.60
2023-04-27T12:23:09.386Z,4.20
2023-04-27T12:25:37.543Z,3.90
2023-04-27T12:28:07.049Z,3.60
2023-04-27T12:30:36.286Z,4.33
2023-04-27T12:33:09.716Z,4.00
2023-04-27T12:35:39.064Z,3.87
2023-04-27T12:38:07.036Z,4.07
2023-04-27T12:40:35.080Z,4.60
2023-04-27T12:43:02.949Z,4.17
2023-04-27T12:45:32.202Z,4.47
2023-04-27T12:48:03.916Z,3.92
2023-04-27T12:50:33.160Z,4.07
2023-04-27T12:53:01.251Z,4.70
2023-04-27T12:55:33.070Z,4.60
2023-04-27T12:58:04.703Z,4.87
2023-04-27T13:00:34.438Z,4.53
2023-04-27T13:03:02.477Z,4.33
2023-04-27T13:05:32.014Z,4.60
2023-04-27T13:08:00.330Z,4.57
2023-04-27T13:10:29.170Z,4.20
2023-04-27T13:12:57.849Z,4.27
2023-04-27T13:15:25.790Z,4.20
2023-04-27T13:17:56.278Z,4.30
2023-04-27T13:20:24.233Z,4.87
2023-04-27T13:22:52.133Z,4.33
2023-04-27T13:25:20.728Z,4.47
2023-04-27T13:27:48.652Z,4.47
2023-04-27T13:30:16.751Z,4.40
2023-04-27T13:32:44.637Z,4.27
2023-04-27T13:35:14.266Z,4.30
2023-04-27T13:37:42.699Z,4.23
2023-04-27T13:40:12.522Z,4.10
2023-04-27T13:42:41.112Z,4.23
2023-04-27T13:45:09.898Z,4.17
2023-04-27T13:47:37.887Z,4.13
2023-04-27T13:50:07.825Z,4.30
2023-04-27T13:52:38.006Z,4.00
2023-04-27T13:55:07.123Z,3.78
2023-04-27T13:57:35.184Z,4.33
2023-04-27T14:00:03.577Z,4.25
2023-04-27T14:02:35.318Z,4.15
2023-04-27T14:05:03.369Z,4.03
2023-04-27T14:07:31.759Z,3.70
2023-04-27T14:10:01.205Z,4.23
2023-04-27T14:12:29.090Z,3.80
2023-04-27T14:14:58.434Z,4.38
2023-04-27T14:17:26.756Z,3.70
2023-04-27T14:19:54.716Z,4.10
2023-04-27T14:22:22.659Z,4.17
2023-04-27T14:24:50.603Z,4.43
2023-04-27T14:27:19.875Z,4.33
2023-04-27T14:29:47.866Z,4.03
2023-04-27T14:32:16.047Z,3.90
2023-04-27T14:34:44.022Z,3.90
2023-04-27T14:37:11.975Z,4.43
2023-04-27T14:39:39.947Z,3.40
2023-04-27T14:42:07.809Z,3.67
2023-04-27T14:44:37.170Z,4.03
2023-04-27T14:47:06.295Z,3.93
2023-04-27T14:49:34.236Z,3.90
2023-04-27T14:52:04.565Z,5.20
2023-04-27T14:54:32.494Z,4.63
2023-04-27T14:57:01.061Z,4.07
2023-04-27T14:59:29.024Z,4.47
2023-04-27T15:01:58.348Z,4.10
2023-04-27T15:04:26.802Z,4.43
2023-04-27T15:06:54.945Z,4.43
2023-04-27T15:09:22.837Z,4.53
2023-04-27T15:11:50.757Z,5.00
2023-04-27T15:14:18.686Z,4.77
2023-04-27T15:16:46.575Z,4.20
2023-04-27T15:19:16.485Z,4.50
2023-04-27T15:21:44.749Z,4.37
2023-04-27T15:24:12.632Z,4.37
2023-04-27T15:26:41.130Z,3.83
2023-04-27T15:29:09.002Z,3.80
2023-04-27T15:31:37.039Z,3.97
2023-04-27T15:34:05.042Z,4.13
2023-04-27T15:36:34.475Z,5.67
2023-04-27T15:39:02.342Z,4.27
2023-04-27T15:41:30.198Z,4.20
2023-04-27T15:43:58.160Z,3.80
2023-04-27T15:46:26.104Z,4.10
2023-04-27T15:48:54.034Z,3.63
2023-04-27T15:51:21.890Z,3.83
2023-04-27T15:53:51.117Z,3.87
2023-04-27T15:56:19.100Z,3.53
2023-04-27T15:58:47.078Z,3.73
2023-04-27T16:01:15.008Z,3.70
2023-04-27T16:03:43.104Z,3.40
2023-04-27T16:06:11.410Z,3.57
2023-04-27T16:08:39.318Z,4.37
2023-04-27T16:11:08.654Z,3.63
2023-04-27T16:13:36.570Z,3.83
2023-04-27T16:16:04.823Z,3.67
2023-04-27T16:18:32.714Z,3.25
2023-04-27T16:21:00.574Z,3.63
2023-04-27T16:23:28.485Z,3.85
2023-04-27T16:25:56.439Z,3.67
2023-04-27T16:28:25.734Z,3.75
2023-04-27T16:30:53.809Z,3.80
2023-04-27T16:33:21.800Z,3.60
2023-04-27T16:35:49.940Z,3.92
2023-04-27T16:38:18.047Z,3.90
2023-04-27T16:40:46.032Z,3.88
2023-04-27T16:43:13.868Z,3.55
2023-04-27T16:45:43.336Z,3.40
2023-04-27T16:48:11.990Z,3.63
2023-04-27T16:50:40.792Z,3.80
2023-04-27T16:53:10.862Z,3.70
2023-04-27T16:55:38.772Z,3.83
2023-04-27T16:58:07.555Z,3.90
2023-04-27T17:00:35.603Z,3.70
2023-04-27T17:03:05.113Z,3.85
2023-04-27T17:05:33.766Z,3.65
2023-04-27T17:08:04.915Z,3.60
2023-04-27T17:10:33.449Z,4.00
2023-04-27T17:13:01.434Z,3.42
2023-04-27T17:15:29.474Z,3.28
2023-04-27T17:17:59.549Z,3.28
2023-04-27T17:20:29.483Z,4.50
2023-04-27T17:22:57.995Z,4.10
2023-04-27T17:25:26.098Z,3.30
2023-04-27T17:27:54.093Z,3.40
2023-04-27T17:30:21.973Z,3.10
2023-04-27T17:32:50.201Z,3.70
2023-04-27T17:35:20.452Z,3.50
2023-04-27T17:37:49.867Z,3.40
2023-04-27T17:40:20.681Z,3.70
2023-04-27T17:42:48.923Z,4.23
2023-04-27T17:45:17.118Z,4.00
2023-04-27T17:47:45.030Z,4.90
2023-04-27T17:50:14.650Z,4.37
2023-04-27T17:52:42.554Z,4.80
2023-04-27T17:55:12.273Z,5.13
2023-04-27T17:57:40.768Z,4.77
2023-04-27T18:00:10.250Z,4.20
2023-04-27T18:02:39.471Z,3.70
2023-04-27T18:05:08.183Z,4.00
2023-04-27T18:07:37.237Z,4.63
2023-04-27T18:10:05.566Z,4.50
2023-04-27T18:12:34.984Z,4.00
2023-04-27T18:15:05.510Z,4.13
2023-04-27T18:17:34.939Z,3.77
2023-04-27T18:20:09.355Z,3.93
2023-04-27T18:22:39.811Z,3.70
2023-04-27T18:25:08.787Z,4.07
2023-04-27T18:27:38.279Z,5.03
2023-04-27T18:30:07.723Z,3.70
2023-04-27T18:32:36.049Z,3.00
2023-04-27T18:35:05.581Z,2.83
2023-04-27T18:37:33.507Z,2.93
2023-04-27T18:40:01.457Z,2.97
2023-04-27T18:42:29.379Z,2.80
2023-04-27T18:45:00.782Z,2.90
2023-04-27T18:47:29.116Z,2.90
2023-04-27T18:49:57.037Z,2.60
2023-04-27T18:52:24.920Z,2.63
2023-04-27T18:54:52.805Z,2.40
2023-04-27T18:57:21.013Z,3.07
2023-04-27T18:59:49.029Z,2.40
2023-04-27T19:02:18.233Z,2.87
2023-04-27T19:04:53.160Z,2.80
2023-04-27T19:07:29.954Z,2.67
2023-04-27T19:09:57.987Z,3.23
2023-04-27T19:12:26.029Z,2.90
2023-04-27T19:14:54.107Z,2.70
2023-04-27T19:17:23.485Z,2.70
2023-04-27T19:19:51.355Z,2.90
2023-04-27T19:22:19.332Z,2.70
2023-04-27T19:24:47.703Z,2.70
2023-04-27T19:27:15.820Z,2.77
2023-04-27T19:29:51.763Z,2.80
2023-04-27T19:32:20.283Z,2.57
2023-04-27T19:34:50.007Z,2.90
2023-04-27T19:37:18.199Z,3.00
2023-04-27T19:39:46.946Z,2.57
2023-04-27T19:42:15.206Z,2.87
2023-04-27T19:44:43.227Z,2.90
2023-04-27T19:47:11.786Z,2.87
2023-04-27T19:49:40.250Z,2.70
2023-04-27T19:52:09.614Z,3.57
2023-04-27T19:54:38.313Z,2.73
2023-04-27T19:57:06.586Z,3.00
2023-04-27T19:59:34.757Z,3.00
2023-04-27T20:02:03.099Z,2.90
2023-04-27T20:04:31.276Z,2.97
2023-04-27T20:06:59.390Z,2.73
2023-04-27T20:09:28.631Z,2.70
2023-04-27T20:11:56.634Z,3.00
2023-04-27T20:14:24.903Z,3.03
2023-04-27T20:16:53.002Z,3.20
2023-04-27T20:19:22.567Z,2.73
2023-04-27T20:21:50.483Z,2.90
2023-04-27T20:24:18.550Z,3.13
2023-04-27T20:26:47.812Z,2.73
2023-04-27T20:29:16.039Z,2.97
2023-04-27T20:31:44.894Z,2.83
2023-04-27T20:34:13.680Z,3.10
2023-04-27T20:36:44.264Z,2.70
2023-04-27T20:39:13.008Z,3.03
2023-04-27T20:41:41.897Z,3.10
2023-04-27T20:44:11.735Z,2.80
2023-04-27T20:46:39.732Z,3.17
2023-04-27T20:49:07.680Z,2.80
2023-04-27T20:51:35.810Z,2.87
2023-04-27T20:54:03.757Z,2.90
2023-04-27T20:56:32.860Z,2.70
2023-04-27T20:59:01.050Z,2.70
2023-04-27T21:01:30.335Z,3.00
2023-04-27T21:03:58.487Z,2.80
2023-04-27T21:06:26.668Z,3.20
2023-04-27T21:08:54.515Z,3.00
2023-04-27T21:11:22.528Z,3.17
2023-04-27T21:13:50.485Z,3.43
2023-04-27T21:16:18.757Z,3.10
2023-04-27T21:18:47.992Z,2.97
2023-04-27T21:21:15.871Z,3.00
2023-04-27T21:23:43.819Z,3.07
2023-04-27T21:26:12.089Z,3.00
2023-04-27T21:28:40.494Z,2.90
2023-04-27T21:31:08.481Z,3.00
2023-04-27T21:33:36.422Z,3.00
2023-04-27T21:36:06.333Z,2.80
2023-04-27T21:38:34.290Z,3.03
2023-04-27T21:41:02.113Z,2.77
2023-04-27T21:43:30.119Z,3.23
2023-04-27T21:45:58.416Z,2.90
2023-04-27T21:48:26.334Z,2.93
2023-04-27T21:50:54.199Z,3.07
2023-04-27T21:53:23.432Z,2.83
2023-04-27T21:55:51.656Z,2.67
2023-04-27T21:58:19.485Z,2.90
2023-04-27T22:00:48.647Z,3.07
2023-04-27T22:03:16.769Z,3.20
2023-04-27T22:05:45.239Z,3.30
2023-04-27T22:08:13.300Z,4.03
2023-04-27T22:10:42.546Z,3.17
2023-04-27T22:13:18.875Z,3.10
2023-04-27T22:15:48.119Z,3.97
2023-04-27T22:18:16.117Z,3.40
2023-04-27T22:20:44.386Z,3.50
2023-04-27T22:23:12.296Z,3.20
2023-04-27T22:25:42.604Z,3.20
2023-04-27T22:28:12.203Z,3.10
2023-04-27T22:30:41.498Z,3.30
2023-04-27T22:33:10.213Z,2.93
2023-04-27T22:35:38.507Z,3.70
2023-04-27T22:38:07.029Z,3.60
2023-04-27T22:40:34.926Z,3.60
2023-04-27T22:43:03.440Z,3.47
2023-04-27T22:45:33.447Z,3.67
2023-04-27T22:48:02.079Z,3.30
2023-04-27T22:50:30.811Z,3.70
2023-04-27T22:53:00.450Z,3.10
2023-04-27T22:55:28.808Z,3.33
2023-04-27T22:57:56.791Z,3.43
2023-04-27T23:00:25.403Z,3.23
2023-04-27T23:02:55.207Z,3.10
2023-04-27T23:05:23.263Z,4.43
2023-04-27T23:07:51.810Z,3.33
2023-04-27T23:10:19.723Z,3.30
2023-04-27T23:12:47.783Z,3.20
2023-04-27T23:15:16.414Z,3.60
2023-04-27T23:17:44.513Z,3.90
2023-04-27T23:20:27.351Z,3.50
2023-04-27T23:22:56.965Z,3.40
2023-04-27T23:25:25.051Z,3.37
2023-04-27T23:27:53.139Z,3.40
2023-04-27T23:30:21.781Z,3.40
2023-04-27T23:32:50.026Z,3.47
2023-04-27T23:35:19.652Z,3.40
2023-04-27T23:37:47.564Z,3.33
2023-04-27T23:40:15.616Z,3.37
2023-04-27T23:42:43.559Z,3.50
2023-04-27T23:45:12.229Z,3.20
2023-04-27T23:47:40.192Z,3.40
2023-04-27T23:50:08.984Z,3.60
2023-04-27T23:52:38.260Z,3.33
2023-04-27T23:55:07.177Z,3.10
2023-04-27T23:57:35.085Z,3.53
